createdAt,value
2019-03-25T00:03:23.245Z,9.46
2019-03-25T00:08:17.991Z,9.49
2019-03-25T00:13:12.566Z,9.42
2019-03-25T00:18:07.242Z,9.47
2019-03-25T00:23:01.813Z,9.33
2019-03-25T00:27:56.446Z,9.25
2019-03-25T00:32:51.007Z,9.25
2019-03-25T00:37:45.644Z,9.26
2019-03-25T00:42:59.688Z,9.25
2019-03-25T00:47:54.267Z,9.20
2019-03-25T00:52:48.863Z,9.34
2019-03-25T00:57:43.439Z,9.21
2019-03-25T01:02:38.100Z,8.95
2019-03-25T01:07:32.674Z,8.89
2019-03-25T01:12:27.267Z,8.82
2019-03-25T01:17:21.864Z,8.84
2019-03-25T01:22:16.470Z,8.77
2019-03-25T01:27:11.036Z,8.80
2019-03-25T01:32:05.626Z,8.70
2019-03-25T01:37:00.206Z,8.72
2019-03-25T01:41:54.795Z,9.10
2019-03-25T01:46:49.365Z,9.12
2019-03-25T01:51:43.963Z,9.04
2019-03-25T01:56:38.538Z,8.87
2019-03-25T02:01:33.199Z,8.91
2019-03-25T02:06:27.768Z,8.86
2019-03-25T02:11:22.549Z,8.87
2019-03-25T02:16:17.094Z,9.02
2019-03-25T02:21:11.686Z,9.03
2019-03-25T02:26:06.270Z,9.05
2019-03-25T02:31:00.873Z,8.93
2019-03-25T02:35:55.433Z,8.79
2019-03-25T02:40:50.023Z,8.85
2019-03-25T02:45:44.613Z,8.65
2019-03-25T02:50:39.201Z,8.65
2019-03-25T02:55:41.488Z,8.63
2019-03-25T03:00:40.160Z,8.51
2019-03-25T03:05:35.102Z,8.42
2019-03-25T03:10:29.702Z,8.38
2019-03-25T03:15:24.292Z,8.27
2019-03-25T03:20:19.437Z,8.25
2019-03-25T03:25:14.008Z,8.20
2019-03-25T03:30:09.630Z,8.18
2019-03-25T03:35:06.459Z,8.30
2019-03-25T03:40:01.036Z,8.15
2019-03-25T03:44:55.622Z,8.29
2019-03-25T03:49:50.214Z,8.24
2019-03-25T03:54:45.727Z,8.41
2019-03-25T03:59:40.764Z,8.36
2019-03-25T04:04:35.318Z,8.34
2019-03-25T04:09:29.909Z,8.39
2019-03-25T04:14:24.479Z,8.30
2019-03-25T04:19:19.067Z,8.22
2019-03-25T04:24:13.644Z,8.20
2019-03-25T04:29:08.252Z,8.17
2019-03-25T04:34:02.827Z,8.18
2019-03-25T04:38:57.421Z,8.18
2019-03-25T04:43:54.410Z,8.19
2019-03-25T04:48:48.310Z,8.06
2019-03-25T04:53:42.893Z,7.94
2019-03-25T04:58:37.498Z,7.89
2019-03-25T05:03:32.084Z,7.81
2019-03-25T05:08:26.688Z,7.80
2019-03-25T05:13:21.254Z,7.86
2019-03-25T05:18:15.852Z,7.74
2019-03-25T05:23:10.424Z,7.63
2019-03-25T05:28:05.021Z,7.45
2019-03-25T05:32:59.593Z,7.46
2019-03-25T05:37:54.178Z,7.40
2019-03-25T05:42:48.767Z,7.49
2019-03-25T05:47:43.364Z,7.43
2019-03-25T05:52:37.936Z,7.48
2019-03-25T05:57:32.540Z,7.66
2019-03-25T06:02:27.105Z,7.75
2019-03-25T06:07:21.718Z,7.77
2019-03-25T06:12:16.307Z,7.82
2019-03-25T06:17:10.904Z,7.92
2019-03-25T06:22:05.535Z,8.39
2019-03-25T06:27:00.353Z,8.34
2019-03-25T06:31:54.927Z,8.47
2019-03-25T06:36:49.516Z,8.65
2019-03-25T06:41:44.091Z,8.85
2019-03-25T06:46:38.685Z,9.09
2019-03-25T06:51:33.261Z,9.11
2019-03-25T06:56:27.931Z,9.33
2019-03-25T07:01:22.500Z,9.32
2019-03-25T07:06:17.684Z,9.44
2019-03-25T07:11:12.625Z,9.50
2019-03-25T07:16:07.236Z,9.69
2019-03-25T07:21:01.850Z,9.33
2019-03-25T07:25:56.698Z,9.21
2019-03-25T07:30:52.364Z,9.22
2019-03-25T07:35:47.137Z,9.27
2019-03-25T07:40:47.656Z,9.27
2019-03-25T07:45:51.244Z,9.46
2019-03-25T07:50:50.474Z,9.62
2019-03-25T07:55:45.273Z,9.81
2019-03-25T08:00:40.007Z,9.89
2019-03-25T08:05:39.752Z,9.91
2019-03-25T08:10:36.070Z,9.83
2019-03-25T08:15:30.830Z,10.03
2019-03-25T08:20:25.430Z,10.37
2019-03-25T08:25:20.030Z,10.20
2019-03-25T08:30:15.910Z,10.42
2019-03-25T08:35:13.887Z,10.69
2019-03-25T08:40:10.742Z,10.83
2019-03-25T08:45:07.498Z,10.98
2019-03-25T08:50:02.212Z,11.21
2019-03-25T08:54:59.361Z,11.16
2019-03-25T08:59:54.195Z,11.49
2019-03-25T09:04:48.809Z,11.38
2019-03-25T09:09:43.717Z,11.57
2019-03-25T09:14:40.985Z,11.53
2019-03-25T09:19:36.102Z,11.62
2019-03-25T09:24:32.951Z,11.83
2019-03-25T09:29:27.406Z,11.87
2019-03-25T09:34:22.032Z,12.08
2019-03-25T09:39:16.769Z,12.01
2019-03-25T09:44:11.607Z,11.59
2019-03-25T09:49:06.321Z,11.33
2019-03-25T09:54:00.932Z,11.12
2019-03-25T09:58:55.505Z,11.40
2019-03-25T10:03:52.452Z,11.17
2019-03-25T10:08:47.109Z,11.24
2019-03-25T10:13:44.364Z,10.70
2019-03-25T10:18:41.479Z,10.63
2019-03-25T10:23:37.160Z,10.16
2019-03-25T10:28:31.770Z,10.20
2019-03-25T10:33:30.705Z,10.13
2019-03-25T10:38:27.428Z,10.59
2019-03-25T10:43:22.037Z,10.64
2019-03-25T10:48:16.805Z,10.99
2019-03-25T10:53:11.480Z,11.03
2019-03-25T10:58:06.193Z,10.57
2019-03-25T11:03:01.656Z,10.89
2019-03-25T11:07:56.618Z,10.89
2019-03-25T11:12:51.305Z,11.03
2019-03-25T11:17:46.923Z,11.21
2019-03-25T11:22:41.549Z,11.50
2019-03-25T11:27:36.246Z,11.47
2019-03-25T11:32:30.903Z,11.73
2019-03-25T11:37:25.527Z,11.73
2019-03-25T11:42:20.110Z,11.91
2019-03-25T11:47:20.177Z,12.37
2019-03-25T11:52:19.038Z,12.86
2019-03-25T11:57:17.326Z,11.75
2019-03-25T12:02:18.060Z,10.87
2019-03-25T12:07:20.318Z,10.48
2019-03-25T12:12:20.304Z,10.10
2019-03-25T12:17:21.220Z,10.13
2019-03-25T12:22:22.613Z,10.00
2019-03-25T12:27:22.471Z,10.43
2019-03-25T12:32:23.663Z,10.38
2019-03-25T12:37:24.933Z,10.17
2019-03-25T12:42:23.981Z,10.29
2019-03-25T12:47:18.731Z,10.33
2019-03-25T12:52:13.355Z,10.69
2019-03-25T12:57:07.957Z,10.79
2019-03-25T13:02:02.588Z,10.94
2019-03-25T13:06:57.189Z,11.08
2019-03-25T13:11:52.041Z,10.79
2019-03-25T13:16:46.928Z,10.74
2019-03-25T13:21:42.853Z,10.87
2019-03-25T13:26:37.942Z,11.08
2019-03-25T13:31:32.653Z,11.15
2019-03-25T13:36:27.256Z,11.19
2019-03-25T13:41:22.016Z,11.13
2019-03-25T13:46:16.801Z,11.18
2019-03-25T13:51:11.410Z,10.94
2019-03-25T13:56:06.370Z,11.25
2019-03-25T14:01:01.300Z,11.40
2019-03-25T14:05:57.955Z,11.39
2019-03-25T14:10:52.365Z,11.25
2019-03-25T14:15:47.022Z,11.20
2019-03-25T14:20:59.320Z,11.01
2019-03-25T14:25:53.962Z,10.93
2019-03-25T14:30:48.571Z,11.16
2019-03-25T14:35:43.173Z,10.39
2019-03-25T14:40:37.918Z,10.02
2019-03-25T14:45:32.681Z,10.11
2019-03-25T14:50:27.405Z,10.14
2019-03-25T14:55:22.155Z,10.37
2019-03-25T15:00:25.073Z,10.57
2019-03-25T15:05:14.785Z,10.21
2019-03-25T15:10:10.178Z,10.49
2019-03-25T15:15:10.740Z,10.63
2019-03-25T15:20:10.165Z,10.60
2019-03-25T15:25:08.642Z,10.38
2019-03-25T15:30:04.335Z,10.02
2019-03-25T15:35:00.372Z,9.33
2019-03-25T15:39:54.955Z,9.08
2019-03-25T15:44:49.525Z,8.98
2019-03-25T15:49:44.370Z,8.91
2019-03-25T15:54:38.969Z,9.16
2019-03-25T15:59:33.661Z,9.22
2019-03-25T16:04:28.259Z,9.02
2019-03-25T16:09:23.224Z,8.68
2019-03-25T16:14:17.818Z,8.74
2019-03-25T16:19:12.498Z,8.62
2019-03-25T16:24:07.169Z,8.90
2019-03-25T16:29:03.924Z,8.93
2019-03-25T16:33:58.658Z,8.59
2019-03-25T16:38:53.269Z,8.51
2019-03-25T16:43:47.854Z,8.64
2019-03-25T16:48:42.442Z,8.72
2019-03-25T16:53:37.015Z,8.75
2019-03-25T16:58:31.631Z,8.67
2019-03-25T17:03:26.290Z,8.66
2019-03-25T17:08:20.957Z,8.58
2019-03-25T17:13:15.569Z,7.68
2019-03-25T17:18:10.152Z,4.79
2019-03-25T17:23:04.814Z,3.71
2019-03-25T17:27:59.413Z,3.39
2019-03-25T17:32:54.007Z,3.35
2019-03-25T17:37:48.614Z,3.51
2019-03-25T17:42:43.255Z,3.66
2019-03-25T17:47:37.920Z,3.88
2019-03-25T17:52:32.514Z,4.04
2019-03-25T17:57:27.267Z,4.34
2019-03-25T18:02:21.859Z,4.64
2019-03-25T18:07:16.466Z,4.54
2019-03-25T18:12:11.736Z,4.50
2019-03-25T18:17:06.414Z,4.57
2019-03-25T18:22:01.090Z,4.49
2019-03-25T18:26:55.677Z,4.55
2019-03-25T18:31:50.267Z,4.60
2019-03-25T18:36:44.841Z,4.66
2019-03-25T18:41:39.455Z,4.69
2019-03-25T18:46:34.190Z,4.75
2019-03-25T18:51:28.839Z,4.83
2019-03-25T18:56:23.431Z,4.85
2019-03-25T19:01:18.202Z,4.81
2019-03-25T19:06:12.807Z,4.80
2019-03-25T19:11:07.405Z,4.75
2019-03-25T19:16:02.046Z,4.73
2019-03-25T19:20:56.645Z,4.88
2019-03-25T19:25:51.270Z,4.82
2019-03-25T19:30:45.854Z,4.73
2019-03-25T19:35:40.464Z,4.75
2019-03-25T19:40:35.101Z,4.72
2019-03-25T19:45:30.795Z,4.70
2019-03-25T19:50:25.536Z,4.65
2019-03-25T19:55:20.313Z,4.53
2019-03-25T20:00:16.004Z,4.37
2019-03-25T20:05:11.058Z,4.32
2019-03-25T20:10:10.443Z,4.31
2019-03-25T20:15:07.972Z,4.32
2019-03-25T20:20:02.762Z,4.40
2019-03-25T20:24:57.513Z,4.58
2019-03-25T20:29:52.276Z,4.74
2019-03-25T20:34:46.967Z,4.74
2019-03-25T20:39:41.553Z,4.80
2019-03-25T20:44:36.186Z,4.94
2019-03-25T20:49:30.866Z,5.06
2019-03-25T20:54:25.616Z,5.18
2019-03-25T20:59:20.328Z,5.32
2019-03-25T21:04:15.036Z,5.30
2019-03-25T21:09:09.779Z,5.23
2019-03-25T21:14:04.587Z,5.30
2019-03-25T21:18:59.182Z,5.41
2019-03-25T21:23:53.779Z,5.45
2019-03-25T21:28:48.369Z,5.33
2019-03-25T21:33:43.094Z,5.36
2019-03-25T21:38:37.703Z,5.39
2019-03-25T21:43:32.324Z,5.50
2019-03-25T21:48:26.948Z,5.36
2019-03-25T21:53:21.627Z,5.33
2019-03-25T21:58:16.261Z,5.34
2019-03-25T22:03:12.502Z,5.26
2019-03-25T22:08:07.289Z,5.31
2019-03-25T22:13:01.878Z,5.27
2019-03-25T22:17:56.451Z,5.14
2019-03-25T22:22:51.036Z,4.95
2019-03-25T22:27:45.605Z,4.89
2019-03-25T22:32:40.203Z,5.06
2019-03-25T22:37:34.859Z,4.92
2019-03-25T22:42:29.468Z,4.93
2019-03-25T22:47:24.075Z,5.07
2019-03-25T22:52:18.670Z,5.07
2019-03-25T22:57:13.273Z,5.09
2019-03-25T23:02:07.987Z,5.09
2019-03-25T23:07:02.605Z,4.95
2019-03-25T23:11:57.302Z,4.86
2019-03-25T23:16:51.930Z,4.78
2019-03-25T23:21:46.506Z,4.93
2019-03-25T23:26:41.178Z,4.99
2019-03-25T23:31:35.798Z,4.95
2019-03-25T23:36:30.364Z,5.11
2019-03-25T23:41:24.943Z,4.95
2019-03-25T23:46:19.532Z,4.97
2019-03-25T23:51:14.126Z,4.99
2019-03-25T23:56:08.736Z,4.94
